Main page
METAR-TAF:

METAR-TAF

Airports :

Brno, Czech Republic

Brno–Tuřany Airport

latitude: 49-09N, longitude: 016-42E, elevation: 241 m

Current weather observation

The report was made 18 minutes ago, at 01:30 UTC
Wind 7 kt from the East/Northeast
Temperature 12°C
Humidity 88%
Pressure 1024 hPa
Visibility 10 km or more
no clouds below 1500 m and no cumulonimbus

METAR: LKTB 260130Z 07007KT CAVOK 12/10 Q1024 NOSIG

Time: 03:48 (01:48 UTC)

Forecast

The report was made 2 hours and 48 minutes ago, at 23:00 UTC
Forecast valid from 26 at 00 UTC to 27 at 06 UTC
Wind 6 kt from the East/Northeast
Visibility 10 km or more
Scattered clouds at a height of 4000 ft
Becoming
from 26 at 06 UTC to 26 at 09 UTC
Wind 10 kt from the East/Southeast
Becoming
from 26 at 17 UTC to 26 at 20 UTC
Wind 6 kt from the Northeast

TAF: LKTB 252300Z 2600/2706 06006KT 9999 SCT040 BECMG 2606/2609 12010KT BECMG 2617/2620 05006KT

Weather observations and forecasts of more than 4000 airports (METAR and TAF reports).

The available stations are represented by yellow and red dots on the map.

Hover mouse over dot to see the name of the station.

Then click to see weather observations and forecasts.

To change the map : click on the green buttons with a black cross to zoom in, on the green button with a dash to zoom out, or on the green arrows for adjacent maps.


METAR-TAF: